sensor_id;sensor_type;location;lat;lon;timestamp;temperature;humidity
25154;DHT22;47555;51.038;6.280;2023-04-24T00:01:49;10.00;92.90
25154;DHT22;47555;51.038;6.280;2023-04-24T00:04:15;9.90;94.10
25154;DHT22;47555;51.038;6.280;2023-04-24T00:06:42;9.90;93.50
25154;DHT22;47555;51.038;6.280;2023-04-24T00:09:09;9.90;93.40
25154;DHT22;47555;51.038;6.280;2023-04-24T00:11:35;9.80;92.90
25154;DHT22;47555;51.038;6.280;2023-04-24T00:14:01;9.80;93.40
25154;DHT22;47555;51.038;6.280;2023-04-24T00:16:27;9.80;92.90
25154;DHT22;47555;51.038;6.280;2023-04-24T00:18:53;9.80;92.60
25154;DHT22;47555;51.038;6.280;2023-04-24T00:21:19;9.80;92.20
25154;DHT22;47555;51.038;6.280;2023-04-24T00:23:44;9.80;92.20
25154;DHT22;47555;51.038;6.280;2023-04-24T00:26:10;9.80;91.90
25154;DHT22;47555;51.038;6.280;2023-04-24T00:28:36;9.70;91.90
25154;DHT22;47555;51.038;6.280;2023-04-24T00:31:01;9.80;91.60
25154;DHT22;47555;51.038;6.280;2023-04-24T00:33:27;9.70;91.60
25154;DHT22;47555;51.038;6.280;2023-04-24T00:35:52;9.60;92.00
25154;DHT22;47555;51.038;6.280;2023-04-24T00:38:18;9.60;92.40
25154;DHT22;47555;51.038;6.280;2023-04-24T00:40:46;9.60;92.00
25154;DHT22;47555;51.038;6.280;2023-04-24T00:43:13;9.50;91.90
25154;DHT22;47555;51.038;6.280;2023-04-24T00:45:38;9.50;91.60
25154;DHT22;47555;51.038;6.280;2023-04-24T00:48:04;9.50;92.00
25154;DHT22;47555;51.038;6.280;2023-04-24T00:50:30;9.40;92.10
25154;DHT22;47555;51.038;6.280;2023-04-24T00:52:56;9.40;92.40
25154;DHT22;47555;51.038;6.280;2023-04-24T00:55:21;9.40;92.70
25154;DHT22;47555;51.038;6.280;2023-04-24T00:57:47;9.30;92.80
25154;DHT22;47555;51.038;6.280;2023-04-24T01:00:14;9.30;93.30
25154;DHT22;47555;51.038;6.280;2023-04-24T01:02:41;9.30;93.70
25154;DHT22;47555;51.038;6.280;2023-04-24T01:05:14;9.30;93.50
25154;DHT22;47555;51.038;6.280;2023-04-24T01:07:41;9.30;93.90
25154;DHT22;47555;51.038;6.280;2023-04-24T01:10:10;9.30;94.20
25154;DHT22;47555;51.038;6.280;2023-04-24T01:12:35;9.30;94.70
25154;DHT22;47555;51.038;6.280;2023-04-24T01:15:02;9.30;95.00
25154;DHT22;47555;51.038;6.280;2023-04-24T01:17:29;9.30;94.70
25154;DHT22;47555;51.038;6.280;2023-04-24T01:19:55;9.30;94.10
25154;DHT22;47555;51.038;6.280;2023-04-24T01:22:22;9.30;94.90
25154;DHT22;47555;51.038;6.280;2023-04-24T01:24:47;9.30;95.20
25154;DHT22;47555;51.038;6.280;2023-04-24T01:27:13;9.30;94.80
25154;DHT22;47555;51.038;6.280;2023-04-24T01:29:39;9.30;95.10
25154;DHT22;47555;51.038;6.280;2023-04-24T01:32:05;9.20;95.20
25154;DHT22;47555;51.038;6.280;2023-04-24T01:34:32;9.30;95.00
25154;DHT22;47555;51.038;6.280;2023-04-24T01:36:58;9.30;95.10
25154;DHT22;47555;51.038;6.280;2023-04-24T01:39:23;9.30;95.60
25154;DHT22;47555;51.038;6.280;2023-04-24T01:41:51;9.30;95.70
25154;DHT22;47555;51.038;6.280;2023-04-24T01:44:17;9.30;95.80
25154;DHT22;47555;51.038;6.280;2023-04-24T01:46:43;9.30;95.70
25154;DHT22;47555;51.038;6.280;2023-04-24T01:49:09;9.30;95.50
25154;DHT22;47555;51.038;6.280;2023-04-24T01:51:34;9.30;95.60
25154;DHT22;47555;51.038;6.280;2023-04-24T01:54:00;9.30;96.10
25154;DHT22;47555;51.038;6.280;2023-04-24T01:56:25;9.30;96.40
25154;DHT22;47555;51.038;6.280;2023-04-24T01:58:54;9.20;96.40
25154;DHT22;47555;51.038;6.280;2023-04-24T02:01:20;9.30;96.50
25154;DHT22;47555;51.038;6.280;2023-04-24T02:03:46;9.30;96.20
25154;DHT22;47555;51.038;6.280;2023-04-24T02:06:12;9.30;96.00
25154;DHT22;47555;51.038;6.280;2023-04-24T02:08:37;9.30;96.10
25154;DHT22;47555;51.038;6.280;2023-04-24T02:11:03;9.30;96.30
25154;DHT22;47555;51.038;6.280;2023-04-24T02:13:29;9.30;96.50
25154;DHT22;47555;51.038;6.280;2023-04-24T02:15:54;9.30;96.80
25154;DHT22;47555;51.038;6.280;2023-04-24T02:18:20;9.30;96.40
25154;DHT22;47555;51.038;6.280;2023-04-24T02:20:46;9.40;96.20
25154;DHT22;47555;51.038;6.280;2023-04-24T02:23:11;9.40;96.40
25154;DHT22;47555;51.038;6.280;2023-04-24T02:25:38;9.30;96.10
25154;DHT22;47555;51.038;6.280;2023-04-24T02:28:04;9.50;95.80
25154;DHT22;47555;51.038;6.280;2023-04-24T02:30:29;9.40;95.60
25154;DHT22;47555;51.038;6.280;2023-04-24T02:32:55;9.40;94.80
25154;DHT22;47555;51.038;6.280;2023-04-24T02:35:21;9.40;95.10
25154;DHT22;47555;51.038;6.280;2023-04-24T02:37:46;9.50;95.30
25154;DHT22;47555;51.038;6.280;2023-04-24T02:40:12;9.50;94.50
25154;DHT22;47555;51.038;6.280;2023-04-24T02:42:38;9.50;94.20
25154;DHT22;47555;51.038;6.280;2023-04-24T02:45:03;9.40;94.80
25154;DHT22;47555;51.038;6.280;2023-04-24T02:47:30;9.40;95.00
25154;DHT22;47555;51.038;6.280;2023-04-24T02:49:56;9.40;95.00
25154;DHT22;47555;51.038;6.280;2023-04-24T02:52:21;9.40;95.20
25154;DHT22;47555;51.038;6.280;2023-04-24T02:54:47;9.40;95.10
25154;DHT22;47555;51.038;6.280;2023-04-24T02:57:12;9.40;95.30
25154;DHT22;47555;51.038;6.280;2023-04-24T02:59:38;9.40;95.40
25154;DHT22;47555;51.038;6.280;2023-04-24T03:02:03;9.40;95.50
25154;DHT22;47555;51.038;6.280;2023-04-24T03:04:29;9.40;95.70
25154;DHT22;47555;51.038;6.280;2023-04-24T03:06:54;9.40;95.80
25154;DHT22;47555;51.038;6.280;2023-04-24T03:09:21;9.40;96.10
25154;DHT22;47555;51.038;6.280;2023-04-24T03:11:46;9.40;95.70
25154;DHT22;47555;51.038;6.280;2023-04-24T03:14:12;9.40;96.30
25154;DHT22;47555;51.038;6.280;2023-04-24T03:16:37;9.40;96.30
25154;DHT22;47555;51.038;6.280;2023-04-24T03:19:03;9.40;96.10
25154;DHT22;47555;51.038;6.280;2023-04-24T03:21:29;9.40;96.30
25154;DHT22;47555;51.038;6.280;2023-04-24T03:23:54;9.40;96.20
25154;DHT22;47555;51.038;6.280;2023-04-24T03:26:20;9.40;95.60
25154;DHT22;47555;51.038;6.280;2023-04-24T03:28:45;9.40;95.60
25154;DHT22;47555;51.038;6.280;2023-04-24T03:31:11;9.40;95.10
25154;DHT22;47555;51.038;6.280;2023-04-24T03:33:36;9.40;95.50
25154;DHT22;47555;51.038;6.280;2023-04-24T03:36:02;9.40;96.00
25154;DHT22;47555;51.038;6.280;2023-04-24T03:38:28;9.30;96.60
25154;DHT22;47555;51.038;6.280;2023-04-24T03:40:53;9.30;96.70
25154;DHT22;47555;51.038;6.280;2023-04-24T03:43:19;9.30;96.90
25154;DHT22;47555;51.038;6.280;2023-04-24T03:45:45;9.30;96.50
25154;DHT22;47555;51.038;6.280;2023-04-24T03:48:10;9.30;97.00
25154;DHT22;47555;51.038;6.280;2023-04-24T03:50:36;9.20;97.20
25154;DHT22;47555;51.038;6.280;2023-04-24T03:53:01;9.20;97.30
25154;DHT22;47555;51.038;6.280;2023-04-24T03:55:27;9.20;97.10
25154;DHT22;47555;51.038;6.280;2023-04-24T03:57:52;9.20;96.90
25154;DHT22;47555;51.038;6.280;2023-04-24T04:00:18;9.10;97.30
25154;DHT22;47555;51.038;6.280;2023-04-24T04:02:44;9.10;97.40
25154;DHT22;47555;51.038;6.280;2023-04-24T04:05:09;9.10;98.00
25154;DHT22;47555;51.038;6.280;2023-04-24T04:07:35;9.10;99.00
25154;DHT22;47555;51.038;6.280;2023-04-24T04:10:00;9.00;99.30
25154;DHT22;47555;51.038;6.280;2023-04-24T04:12:26;9.00;99.90
25154;DHT22;47555;51.038;6.280;2023-04-24T04:14:51;9.00;98.70
25154;DHT22;47555;51.038;6.280;2023-04-24T04:17:17;9.00;99.10
25154;DHT22;47555;51.038;6.280;2023-04-24T04:19:43;8.90;98.90
25154;DHT22;47555;51.038;6.280;2023-04-24T04:22:08;8.90;99.20
25154;DHT22;47555;51.038;6.280;2023-04-24T04:24:34;8.90;99.50
25154;DHT22;47555;51.038;6.280;2023-04-24T04:27:03;8.90;99.90
25154;DHT22;47555;51.038;6.280;2023-04-24T04:29:30;8.90;99.90
25154;DHT22;47555;51.038;6.280;2023-04-24T04:31:56;8.90;99.20
25154;DHT22;47555;51.038;6.280;2023-04-24T04:34:22;8.90;99.10
25154;DHT22;47555;51.038;6.280;2023-04-24T04:36:48;9.00;98.90
25154;DHT22;47555;51.038;6.280;2023-04-24T04:39:14;8.90;99.10
25154;DHT22;47555;51.038;6.280;2023-04-24T04:41:40;8.90;99.20
25154;DHT22;47555;51.038;6.280;2023-04-24T04:44:06;8.90;99.40
25154;DHT22;47555;51.038;6.280;2023-04-24T04:46:34;8.90;99.10
25154;DHT22;47555;51.038;6.280;2023-04-24T04:49:00;8.90;99.90
25154;DHT22;47555;51.038;6.280;2023-04-24T04:51:26;8.90;99.90
25154;DHT22;47555;51.038;6.280;2023-04-24T04:53:52;8.90;99.90
25154;DHT22;47555;51.038;6.280;2023-04-24T04:56:18;8.90;99.90
25154;DHT22;47555;51.038;6.280;2023-04-24T04:58:43;8.90;99.90
25154;DHT22;47555;51.038;6.280;2023-04-24T05:01:09;8.90;99.90
25154;DHT22;47555;51.038;6.280;2023-04-24T05:03:34;8.80;99.90
25154;DHT22;47555;51.038;6.280;2023-04-24T05:06:01;8.80;99.90
25154;DHT22;47555;51.038;6.280;2023-04-24T05:08:27;8.80;99.90
25154;DHT22;47555;51.038;6.280;2023-04-24T05:10:53;8.80;99.90
25154;DHT22;47555;51.038;6.280;2023-04-24T05:13:19;8.80;99.90
25154;DHT22;47555;51.038;6.280;2023-04-24T05:15:44;8.80;99.90
25154;DHT22;47555;51.038;6.280;2023-04-24T05:18:10;8.80;99.90
25154;DHT22;47555;51.038;6.280;2023-04-24T05:20:35;8.80;99.90
25154;DHT22;47555;51.038;6.280;2023-04-24T05:23:01;8.80;99.90
25154;DHT22;47555;51.038;6.280;2023-04-24T05:25:27;8.90;99.90
25154;DHT22;47555;51.038;6.280;2023-04-24T05:27:52;8.80;99.90
25154;DHT22;47555;51.038;6.280;2023-04-24T05:30:19;8.80;99.90
25154;DHT22;47555;51.038;6.280;2023-04-24T05:32:45;8.80;99.90
25154;DHT22;47555;51.038;6.280;2023-04-24T05:35:11;8.80;99.90
25154;DHT22;47555;51.038;6.280;2023-04-24T05:37:36;8.90;99.90
25154;DHT22;47555;51.038;6.280;2023-04-24T05:40:02;8.90;99.90
25154;DHT22;47555;51.038;6.280;2023-04-24T05:42:30;8.90;99.90
25154;DHT22;47555;51.038;6.280;2023-04-24T05:44:55;8.90;99.90
25154;DHT22;47555;51.038;6.280;2023-04-24T05:47:21;8.80;99.90
25154;DHT22;47555;51.038;6.280;2023-04-24T05:49:49;8.70;99.90
25154;DHT22;47555;51.038;6.280;2023-04-24T05:52:15;8.70;99.90
25154;DHT22;47555;51.038;6.280;2023-04-24T05:54:40;8.60;99.90
25154;DHT22;47555;51.038;6.280;2023-04-24T05:57:06;8.50;99.90
25154;DHT22;47555;51.038;6.280;2023-04-24T05:59:37;8.50;99.90
25154;DHT22;47555;51.038;6.280;2023-04-24T06:02:04;8.50;99.90
25154;DHT22;47555;51.038;6.280;2023-04-24T06:04:29;8.40;99.90
25154;DHT22;47555;51.038;6.280;2023-04-24T06:06:55;8.40;99.90
25154;DHT22;47555;51.038;6.280;2023-04-24T06:09:24;8.30;99.90
25154;DHT22;47555;51.038;6.280;2023-04-24T06:11:50;8.30;99.90
25154;DHT22;47555;51.038;6.280;2023-04-24T06:14:18;8.30;99.90
25154;DHT22;47555;51.038;6.280;2023-04-24T06:16:44;8.30;99.90
25154;DHT22;47555;51.038;6.280;2023-04-24T06:19:09;8.30;99.90
25154;DHT22;47555;51.038;6.280;2023-04-24T06:21:35;8.30;99.90
25154;DHT22;47555;51.038;6.280;2023-04-24T06:24:01;8.30;99.90
25154;DHT22;47555;51.038;6.280;2023-04-24T06:26:27;8.30;99.90
25154;DHT22;47555;51.038;6.280;2023-04-24T06:28:53;8.30;99.90
25154;DHT22;47555;51.038;6.280;2023-04-24T06:31:21;8.30;99.90
25154;DHT22;47555;51.038;6.280;2023-04-24T06:33:48;8.40;99.90
25154;DHT22;47555;51.038;6.280;2023-04-24T06:36:14;8.40;99.90
25154;DHT22;47555;51.038;6.280;2023-04-24T06:38:39;8.30;99.90
25154;DHT22;47555;51.038;6.280;2023-04-24T06:41:05;8.30;99.90
25154;DHT22;47555;51.038;6.280;2023-04-24T06:43:31;8.40;99.90
25154;DHT22;47555;51.038;6.280;2023-04-24T06:45:57;8.30;99.90
25154;DHT22;47555;51.038;6.280;2023-04-24T06:48:24;8.20;99.90
25154;DHT22;47555;51.038;6.280;2023-04-24T06:57:19;8.20;99.90
25154;DHT22;47555;51.038;6.280;2023-04-24T07:06:16;8.10;99.90
25154;DHT22;47555;51.038;6.280;2023-04-24T07:08:43;8.00;99.90
25154;DHT22;47555;51.038;6.280;2023-04-24T07:11:09;8.00;99.90
25154;DHT22;47555;51.038;6.280;2023-04-24T07:13:34;8.00;99.90
25154;DHT22;47555;51.038;6.280;2023-04-24T07:16:00;8.00;99.90
25154;DHT22;47555;51.038;6.280;2023-04-24T07:18:26;8.00;99.90
25154;DHT22;47555;51.038;6.280;2023-04-24T07:20:51;7.90;99.90
25154;DHT22;47555;51.038;6.280;2023-04-24T07:23:17;7.80;99.90
25154;DHT22;47555;51.038;6.280;2023-04-24T07:25:43;7.70;99.90
25154;DHT22;47555;51.038;6.280;2023-04-24T07:28:09;7.60;99.90
25154;DHT22;47555;51.038;6.280;2023-04-24T07:30:35;7.70;99.90
25154;DHT22;47555;51.038;6.280;2023-04-24T07:33:00;7.70;99.90
25154;DHT22;47555;51.038;6.280;2023-04-24T07:35:26;7.70;99.90
25154;DHT22;47555;51.038;6.280;2023-04-24T07:37:53;7.60;99.90
25154;DHT22;47555;51.038;6.280;2023-04-24T07:40:19;7.70;99.90
25154;DHT22;47555;51.038;6.280;2023-04-24T07:42:45;7.70;99.90
25154;DHT22;47555;51.038;6.280;2023-04-24T07:45:10;7.60;99.90
25154;DHT22;47555;51.038;6.280;2023-04-24T07:47:36;7.50;99.90
25154;DHT22;47555;51.038;6.280;2023-04-24T07:50:03;7.50;99.90
25154;DHT22;47555;51.038;6.280;2023-04-24T07:52:29;7.50;99.90
25154;DHT22;47555;51.038;6.280;2023-04-24T07:54:55;7.50;99.90
25154;DHT22;47555;51.038;6.280;2023-04-24T07:57:24;7.50;99.90
25154;DHT22;47555;51.038;6.280;2023-04-24T07:59:50;7.50;99.90
25154;DHT22;47555;51.038;6.280;2023-04-24T08:02:16;7.40;99.90
25154;DHT22;47555;51.038;6.280;2023-04-24T08:04:41;7.40;99.90
25154;DHT22;47555;51.038;6.280;2023-04-24T08:07:07;7.30;99.90
25154;DHT22;47555;51.038;6.280;2023-04-24T08:09:36;7.30;99.90
25154;DHT22;47555;51.038;6.280;2023-04-24T08:12:02;7.30;99.90
25154;DHT22;47555;51.038;6.280;2023-04-24T08:14:27;7.40;99.90
25154;DHT22;47555;51.038;6.280;2023-04-24T08:16:56;7.40;99.90
25154;DHT22;47555;51.038;6.280;2023-04-24T08:19:21;7.30;99.90
25154;DHT22;47555;51.038;6.280;2023-04-24T08:21:47;7.40;99.90
25154;DHT22;47555;51.038;6.280;2023-04-24T08:24:13;7.40;99.90
25154;DHT22;47555;51.038;6.280;2023-04-24T08:26:38;7.40;99.90
25154;DHT22;47555;51.038;6.280;2023-04-24T08:29:05;7.40;99.90
25154;DHT22;47555;51.038;6.280;2023-04-24T08:31:31;7.40;99.90
25154;DHT22;47555;51.038;6.280;2023-04-24T08:33:57;7.40;99.90
25154;DHT22;47555;51.038;6.280;2023-04-24T08:36:23;7.40;99.90
25154;DHT22;47555;51.038;6.280;2023-04-24T08:38:48;7.50;99.90
25154;DHT22;47555;51.038;6.280;2023-04-24T08:41:14;7.50;99.90
25154;DHT22;47555;51.038;6.280;2023-04-24T08:43:41;7.50;99.90
25154;DHT22;47555;51.038;6.280;2023-04-24T08:46:07;7.60;99.90
25154;DHT22;47555;51.038;6.280;2023-04-24T08:48:34;7.70;99.90
25154;DHT22;47555;51.038;6.280;2023-04-24T08:50:59;7.70;99.90
25154;DHT22;47555;51.038;6.280;2023-04-24T08:53:27;7.70;99.90
25154;DHT22;47555;51.038;6.280;2023-04-24T08:55:54;7.70;99.90
25154;DHT22;47555;51.038;6.280;2023-04-24T08:58:20;7.80;99.90
25154;DHT22;47555;51.038;6.280;2023-04-24T09:00:47;7.90;99.90
25154;DHT22;47555;51.038;6.280;2023-04-24T09:03:15;7.90;99.90
25154;DHT22;47555;51.038;6.280;2023-04-24T09:05:46;7.90;99.90
25154;DHT22;47555;51.038;6.280;2023-04-24T09:08:13;8.00;99.90
25154;DHT22;47555;51.038;6.280;2023-04-24T09:10:39;8.00;99.90
25154;DHT22;47555;51.038;6.280;2023-04-24T09:13:05;8.10;99.90
25154;DHT22;47555;51.038;6.280;2023-04-24T09:15:31;8.10;99.90
25154;DHT22;47555;51.038;6.280;2023-04-24T09:17:57;8.20;99.90
25154;DHT22;47555;51.038;6.280;2023-04-24T09:20:23;8.30;99.90
25154;DHT22;47555;51.038;6.280;2023-04-24T09:22:54;8.30;99.90
25154;DHT22;47555;51.038;6.280;2023-04-24T09:25:20;8.40;99.90
25154;DHT22;47555;51.038;6.280;2023-04-24T09:27:46;8.50;99.90
25154;DHT22;47555;51.038;6.280;2023-04-24T09:30:12;8.70;99.90
25154;DHT22;47555;51.038;6.280;2023-04-24T09:32:37;8.80;99.90
25154;DHT22;47555;51.038;6.280;2023-04-24T09:35:14;8.90;99.90
25154;DHT22;47555;51.038;6.280;2023-04-24T09:37:41;9.00;99.90
25154;DHT22;47555;51.038;6.280;2023-04-24T09:40:18;9.20;99.90
25154;DHT22;47555;51.038;6.280;2023-04-24T09:42:45;9.30;99.90
25154;DHT22;47555;51.038;6.280;2023-04-24T09:45:11;9.40;99.90
25154;DHT22;47555;51.038;6.280;2023-04-24T09:47:38;9.40;99.90
25154;DHT22;47555;51.038;6.280;2023-04-24T09:50:15;9.40;99.90
25154;DHT22;47555;51.038;6.280;2023-04-24T09:52:46;9.40;99.90
25154;DHT22;47555;51.038;6.280;2023-04-24T09:55:18;9.40;99.90
25154;DHT22;47555;51.038;6.280;2023-04-24T09:57:59;9.50;99.90
25154;DHT22;47555;51.038;6.280;2023-04-24T10:00:31;9.60;99.90
25154;DHT22;47555;51.038;6.280;2023-04-24T10:02:57;9.70;99.90
25154;DHT22;47555;51.038;6.280;2023-04-24T10:05:34;9.60;99.90
25154;DHT22;47555;51.038;6.280;2023-04-24T10:08:03;9.60;99.90
25154;DHT22;47555;51.038;6.280;2023-04-24T10:10:30;9.70;99.90
25154;DHT22;47555;51.038;6.280;2023-04-24T10:12:56;9.80;99.90
25154;DHT22;47555;51.038;6.280;2023-04-24T10:15:22;10.00;99.90
25154;DHT22;47555;51.038;6.280;2023-04-24T10:17:49;10.30;99.90
25154;DHT22;47555;51.038;6.280;2023-04-24T10:20:20;10.60;99.90
25154;DHT22;47555;51.038;6.280;2023-04-24T10:22:49;10.70;99.90
25154;DHT22;47555;51.038;6.280;2023-04-24T10:25:20;10.80;99.90
25154;DHT22;47555;51.038;6.280;2023-04-24T10:27:47;10.90;99.90
25154;DHT22;47555;51.038;6.280;2023-04-24T10:30:14;10.90;99.90
25154;DHT22;47555;51.038;6.280;2023-04-24T10:32:40;10.90;99.90
25154;DHT22;47555;51.038;6.280;2023-04-24T10:35:10;11.00;99.90
25154;DHT22;47555;51.038;6.280;2023-04-24T10:37:39;10.90;98.30
25154;DHT22;47555;51.038;6.280;2023-04-24T10:40:07;11.00;99.90
25154;DHT22;47555;51.038;6.280;2023-04-24T10:42:33;11.20;99.90
25154;DHT22;47555;51.038;6.280;2023-04-24T10:45:04;11.40;99.90
25154;DHT22;47555;51.038;6.280;2023-04-24T10:47:30;11.60;99.90
25154;DHT22;47555;51.038;6.280;2023-04-24T10:50:09;11.60;94.50
25154;DHT22;47555;51.038;6.280;2023-04-24T10:52:45;11.50;91.10
25154;DHT22;47555;51.038;6.280;2023-04-24T10:55:13;11.30;92.40
25154;DHT22;47555;51.038;6.280;2023-04-24T10:57:40;11.20;91.60
25154;DHT22;47555;51.038;6.280;2023-04-24T11:00:25;11.10;95.00
25154;DHT22;47555;51.038;6.280;2023-04-24T11:02:53;10.90;92.20
25154;DHT22;47555;51.038;6.280;2023-04-24T11:05:19;10.90;92.90
25154;DHT22;47555;51.038;6.280;2023-04-24T11:08:11;10.70;93.00
25154;DHT22;47555;51.038;6.280;2023-04-24T11:10:47;10.60;95.70
25154;DHT22;47555;51.038;6.280;2023-04-24T11:13:16;10.50;99.40
25154;DHT22;47555;51.038;6.280;2023-04-24T11:15:42;10.50;99.90
25154;DHT22;47555;51.038;6.280;2023-04-24T11:18:15;10.70;99.90
25154;DHT22;47555;51.038;6.280;2023-04-24T11:20:44;10.80;99.90
25154;DHT22;47555;51.038;6.280;2023-04-24T11:23:12;10.90;98.30
25154;DHT22;47555;51.038;6.280;2023-04-24T11:25:38;11.10;99.90
25154;DHT22;47555;51.038;6.280;2023-04-24T11:28:04;11.10;99.90
25154;DHT22;47555;51.038;6.280;2023-04-24T11:30:31;11.10;99.90
25154;DHT22;47555;51.038;6.280;2023-04-24T11:33:03;11.10;98.00
25154;DHT22;47555;51.038;6.280;2023-04-24T11:35:29;11.00;94.40
25154;DHT22;47555;51.038;6.280;2023-04-24T11:37:56;10.80;92.90
25154;DHT22;47555;51.038;6.280;2023-04-24T11:40:22;10.50;93.60
25154;DHT22;47555;51.038;6.280;2023-04-24T11:42:50;10.70;97.60
25154;DHT22;47555;51.038;6.280;2023-04-24T11:45:18;10.70;96.60
25154;DHT22;47555;51.038;6.280;2023-04-24T11:47:44;10.80;97.50
25154;DHT22;47555;51.038;6.280;2023-04-24T11:50:21;11.00;93.50
25154;DHT22;47555;51.038;6.280;2023-04-24T11:52:49;11.10;93.80
25154;DHT22;47555;51.038;6.280;2023-04-24T11:57:46;11.50;92.90
25154;DHT22;47555;51.038;6.280;2023-04-24T12:00:19;11.50;93.80
25154;DHT22;47555;51.038;6.280;2023-04-24T12:02:46;11.50;90.80
25154;DHT22;47555;51.038;6.280;2023-04-24T12:05:26;11.50;89.60
25154;DHT22;47555;51.038;6.280;2023-04-24T12:07:52;11.40;92.60
25154;DHT22;47555;51.038;6.280;2023-04-24T12:10:22;11.30;91.20
25154;DHT22;47555;51.038;6.280;2023-04-24T12:12:48;11.40;89.00
25154;DHT22;47555;51.038;6.280;2023-04-24T12:15:17;11.50;88.70
25154;DHT22;47555;51.038;6.280;2023-04-24T12:17:43;11.60;87.50
25154;DHT22;47555;51.038;6.280;2023-04-24T12:20:09;11.60;88.20
25154;DHT22;47555;51.038;6.280;2023-04-24T12:25:15;11.90;80.70
25154;DHT22;47555;51.038;6.280;2023-04-24T12:27:42;11.90;84.20
25154;DHT22;47555;51.038;6.280;2023-04-24T12:30:16;11.80;81.00
25154;DHT22;47555;51.038;6.280;2023-04-24T12:32:48;11.70;85.30
25154;DHT22;47555;51.038;6.280;2023-04-24T12:35:22;11.60;80.10
25154;DHT22;47555;51.038;6.280;2023-04-24T12:37:48;11.40;81.50
25154;DHT22;47555;51.038;6.280;2023-04-24T12:40:14;11.30;84.10
25154;DHT22;47555;51.038;6.280;2023-04-24T12:42:44;11.20;84.10
25154;DHT22;47555;51.038;6.280;2023-04-24T12:45:10;11.30;83.90
25154;DHT22;47555;51.038;6.280;2023-04-24T12:47:37;11.70;91.60
25154;DHT22;47555;51.038;6.280;2023-04-24T12:50:03;12.20;88.70
25154;DHT22;47555;51.038;6.280;2023-04-24T12:52:30;12.50;82.80
25154;DHT22;47555;51.038;6.280;2023-04-24T12:54:57;12.50;76.30
25154;DHT22;47555;51.038;6.280;2023-04-24T12:57:24;12.50;76.70
25154;DHT22;47555;51.038;6.280;2023-04-24T12:59:50;12.30;73.00
25154;DHT22;47555;51.038;6.280;2023-04-24T13:02:16;12.10;74.50
25154;DHT22;47555;51.038;6.280;2023-04-24T13:04:46;11.90;77.40
25154;DHT22;47555;51.038;6.280;2023-04-24T13:07:15;11.70;79.70
25154;DHT22;47555;51.038;6.280;2023-04-24T13:09:42;11.60;78.80
25154;DHT22;47555;51.038;6.280;2023-04-24T13:12:09;11.40;79.80
25154;DHT22;47555;51.038;6.280;2023-04-24T13:14:35;11.30;81.00
25154;DHT22;47555;51.038;6.280;2023-04-24T13:17:00;11.20;81.80
25154;DHT22;47555;51.038;6.280;2023-04-24T13:19:27;11.10;84.00
25154;DHT22;47555;51.038;6.280;2023-04-24T13:21:56;11.10;81.40
25154;DHT22;47555;51.038;6.280;2023-04-24T13:24:23;11.10;80.20
25154;DHT22;47555;51.038;6.280;2023-04-24T13:26:52;11.20;83.10
25154;DHT22;47555;51.038;6.280;2023-04-24T13:29:18;11.30;83.00
25154;DHT22;47555;51.038;6.280;2023-04-24T13:31:45;11.50;86.40
25154;DHT22;47555;51.038;6.280;2023-04-24T13:34:12;11.60;82.00
25154;DHT22;47555;51.038;6.280;2023-04-24T13:36:38;11.80;79.30
25154;DHT22;47555;51.038;6.280;2023-04-24T13:39:05;11.90;77.30
25154;DHT22;47555;51.038;6.280;2023-04-24T13:41:34;12.10;77.30
25154;DHT22;47555;51.038;6.280;2023-04-24T13:44:00;12.00;74.00
25154;DHT22;47555;51.038;6.280;2023-04-24T13:46:26;12.20;76.20
25154;DHT22;47555;51.038;6.280;2023-04-24T13:48:52;12.30;77.90
25154;DHT22;47555;51.038;6.280;2023-04-24T13:51:18;12.30;78.60
25154;DHT22;47555;51.038;6.280;2023-04-24T13:53:43;12.40;74.40
25154;DHT22;47555;51.038;6.280;2023-04-24T13:56:09;12.40;70.30
25154;DHT22;47555;51.038;6.280;2023-04-24T13:58:35;12.50;73.90
25154;DHT22;47555;51.038;6.280;2023-04-24T14:01:04;12.40;70.40
25154;DHT22;47555;51.038;6.280;2023-04-24T14:03:29;12.40;71.50
25154;DHT22;47555;51.038;6.280;2023-04-24T14:05:55;12.30;68.10
25154;DHT22;47555;51.038;6.280;2023-04-24T14:08:21;12.20;72.70
25154;DHT22;47555;51.038;6.280;2023-04-24T14:10:49;12.10;70.30
25154;DHT22;47555;51.038;6.280;2023-04-24T14:13:16;12.20;76.00
25154;DHT22;47555;51.038;6.280;2023-04-24T14:15:41;12.10;75.90
25154;DHT22;47555;51.038;6.280;2023-04-24T14:18:07;12.10;77.40
25154;DHT22;47555;51.038;6.280;2023-04-24T14:20:32;12.20;75.10
25154;DHT22;47555;51.038;6.280;2023-04-24T14:22:58;12.50;74.40
25154;DHT22;47555;51.038;6.280;2023-04-24T14:25:24;12.50;76.50
25154;DHT22;47555;51.038;6.280;2023-04-24T14:27:50;12.80;78.90
25154;DHT22;47555;51.038;6.280;2023-04-24T14:30:16;13.00;79.70
25154;DHT22;47555;51.038;6.280;2023-04-24T14:32:42;13.20;65.90
25154;DHT22;47555;51.038;6.280;2023-04-24T14:35:08;13.30;73.50
25154;DHT22;47555;51.038;6.280;2023-04-24T14:37:34;13.50;69.30
25154;DHT22;47555;51.038;6.280;2023-04-24T14:39:59;13.50;59.60
25154;DHT22;47555;51.038;6.280;2023-04-24T14:42:25;13.60;63.00
25154;DHT22;47555;51.038;6.280;2023-04-24T14:44:51;13.70;68.40
25154;DHT22;47555;51.038;6.280;2023-04-24T14:47:16;13.80;69.30
25154;DHT22;47555;51.038;6.280;2023-04-24T14:49:49;13.90;64.40
25154;DHT22;47555;51.038;6.280;2023-04-24T14:52:15;13.90;56.50
25154;DHT22;47555;51.038;6.280;2023-04-24T14:54:41;13.90;56.30
25154;DHT22;47555;51.038;6.280;2023-04-24T14:57:07;13.90;54.80
25154;DHT22;47555;51.038;6.280;2023-04-24T14:59:33;13.90;53.20
25154;DHT22;47555;51.038;6.280;2023-04-24T15:01:59;13.80;55.10
25154;DHT22;47555;51.038;6.280;2023-04-24T15:04:25;13.80;56.20
25154;DHT22;47555;51.038;6.280;2023-04-24T15:06:51;13.80;55.40
25154;DHT22;47555;51.038;6.280;2023-04-24T15:09:17;13.80;52.80
25154;DHT22;47555;51.038;6.280;2023-04-24T15:11:42;13.80;55.40
25154;DHT22;47555;51.038;6.280;2023-04-24T15:14:08;13.70;53.80
25154;DHT22;47555;51.038;6.280;2023-04-24T15:16:33;13.60;50.00
25154;DHT22;47555;51.038;6.280;2023-04-24T15:18:59;13.40;52.20
25154;DHT22;47555;51.038;6.280;2023-04-24T15:21:31;13.10;54.40
25154;DHT22;47555;51.038;6.280;2023-04-24T15:23:57;13.00;54.40
25154;DHT22;47555;51.038;6.280;2023-04-24T15:26:23;12.90;55.10
25154;DHT22;47555;51.038;6.280;2023-04-24T15:28:49;12.90;56.30
25154;DHT22;47555;51.038;6.280;2023-04-24T15:31:14;12.70;53.70
25154;DHT22;47555;51.038;6.280;2023-04-24T15:33:41;12.60;54.50
25154;DHT22;47555;51.038;6.280;2023-04-24T15:36:06;12.40;56.00
25154;DHT22;47555;51.038;6.280;2023-04-24T15:38:32;12.40;58.10
25154;DHT22;47555;51.038;6.280;2023-04-24T15:40:57;12.50;58.40
25154;DHT22;47555;51.038;6.280;2023-04-24T15:43:23;12.60;58.70
25154;DHT22;47555;51.038;6.280;2023-04-24T15:45:52;12.80;59.00
25154;DHT22;47555;51.038;6.280;2023-04-24T15:48:18;12.90;54.20
25154;DHT22;47555;51.038;6.280;2023-04-24T15:50:44;13.00;50.50
25154;DHT22;47555;51.038;6.280;2023-04-24T15:53:09;12.80;52.10
25154;DHT22;47555;51.038;6.280;2023-04-24T15:55:35;12.70;52.90